Time;durP1;ratioP1;P1;durP2;ratioP2;P2;SDS_P1;SDS_P2;PMS_P1;PMS_P2;Temp;Humidity;BMP_temperature;BMP_pressure;BME280_temperature;BME280_humidity;BME280_pressure;Samples;Min_cycle;Max_cycle;Signal;HPM_P1;HPM_P2
2021/12/15 00:00:33;;;;;;;22.13;10.35;;;;;;;;;;4995623;28;20042;-61
2021/12/15 00:03:02;;;;;;;24.83;10.23;;;;;;;;;;4995783;28;20050;-60
2021/12/15 00:05:30;;;;;;;25.58;10.73;;;;;;;;;;4995675;28;20046;-60
2021/12/15 00:08:00;;;;;;;20.63;10.00;;;;;;;;;;4995236;28;20241;-60
2021/12/15 00:10:29;;;;;;;23.73;9.73;;;;;;;;;;4996037;28;20141;-60
2021/12/15 00:12:57;;;;;;;17.60;8.45;;;;;;;;;;4995109;28;20053;-61
2021/12/15 00:15:27;;;;;;;22.15;9.13;;;;;;;;;;4995178;28;20045;-61
2021/12/15 00:17:54;;;;;;;21.52;8.57;;;;;;;;;;4993457;28;20137;-60
2021/12/15 00:20:24;;;;;;;21.58;8.68;;;;;;;;;;4995221;28;20648;-59
2021/12/15 00:22:52;;;;;;;18.95;9.18;;;;;;;;;;4992371;28;20046;-61
2021/12/15 00:25:20;;;;;;;22.38;10.77;;;;;;;;;;4995281;28;20407;-61
2021/12/15 00:27:48;;;;;;;24.17;10.90;;;;;;;;;;4994902;28;20058;-61
2021/12/15 00:30:15;;;;;;;22.85;8.85;;;;;;;;;;4995476;28;20058;-61
2021/12/15 00:32:42;;;;;;;21.52;9.45;;;;;;;;;;4995445;28;20050;-60
2021/12/15 00:35:10;;;;;;;24.38;11.52;;;;;;;;;;4995561;28;20125;-60
2021/12/15 00:37:39;;;;;;;22.95;10.77;;;;;;;;;;4994760;28;20061;-60
2021/12/15 00:40:09;;;;;;;21.10;10.02;;;;;;;;;;4994890;28;20050;-60
2021/12/15 00:42:36;;;;;;;23.10;9.27;;;;;;;;;;4995033;28;20046;-60
2021/12/15 00:45:05;;;;;;;26.83;10.85;;;;;;;;;;4993758;28;20416;-60
2021/12/15 00:47:32;;;;;;;26.73;11.27;;;;;;;;;;4993432;28;20054;-60
2021/12/15 00:50:06;;;;;;;24.33;11.23;;;;;;;;;;4993767;28;20415;-59
2021/12/15 00:52:33;;;;;;;22.00;11.25;;;;;;;;;;4993398;28;20055;-60
2021/12/15 01:12:11;;;;;;;25.48;11.55;;;;;;;;;;4991706;28;20045;-60
2021/12/15 01:20:21;;;;;;;29.13;12.63;;;;;;;;;;4993084;28;20104;-60
2021/12/15 01:22:51;;;;;;;31.45;11.57;;;;;;;;;;4993124;28;20054;-60
2021/12/15 01:25:22;;;;;;;29.05;12.95;;;;;;;;;;4993131;28;20054;-60
2021/12/15 01:27:51;;;;;;;25.20;11.20;;;;;;;;;;4992673;28;20050;-57
2021/12/15 01:30:21;;;;;;;27.35;12.38;;;;;;;;;;4992982;28;20702;-60
2021/12/15 01:32:48;;;;;;;26.92;11.07;;;;;;;;;;4993206;28;20500;-62
2021/12/15 01:35:15;;;;;;;29.02;12.98;;;;;;;;;;4993118;28;20054;-60
2021/12/15 01:37:44;;;;;;;25.00;11.35;;;;;;;;;;4992527;28;20058;-59
2021/12/15 01:40:21;;;;;;;28.95;11.82;;;;;;;;;;4993024;28;20054;-60
2021/12/15 01:42:48;;;;;;;25.08;12.35;;;;;;;;;;4993126;28;20482;-60
2021/12/15 01:48:04;;;;;;;27.58;11.30;;;;;;;;;;4993437;28;20058;-59
2021/12/15 01:50:31;;;;;;;27.13;11.25;;;;;;;;;;4993522;28;20046;-60
2021/12/15 01:52:58;;;;;;;28.95;12.18;;;;;;;;;;4993492;28;20053;-59
2021/12/15 01:55:27;;;;;;;28.33;11.93;;;;;;;;;;4993493;28;20053;-60
2021/12/15 01:57:54;;;;;;;25.35;11.07;;;;;;;;;;4993238;28;20411;-59
2021/12/15 02:00:26;;;;;;;26.73;12.13;;;;;;;;;;4993632;28;20046;-59
2021/12/15 02:02:58;;;;;;;24.50;11.57;;;;;;;;;;4993707;28;20087;-60
2021/12/15 02:05:27;;;;;;;24.98;11.60;;;;;;;;;;4993518;28;20054;-60
2021/12/15 02:07:55;;;;;;;27.70;12.65;;;;;;;;;;4993275;28;20065;-60
2021/12/15 02:10:28;;;;;;;26.17;12.18;;;;;;;;;;4993789;28;20061;-60
2021/12/15 02:12:56;;;;;;;32.35;14.20;;;;;;;;;;4994110;28;20054;-60
2021/12/15 02:15:27;;;;;;;27.42;11.52;;;;;;;;;;4993900;28;20496;-60
2021/12/15 02:17:55;;;;;;;26.77;12.07;;;;;;;;;;4993319;28;20050;-60
2021/12/15 02:20:28;;;;;;;26.42;11.52;;;;;;;;;;4993294;28;20065;-60
2021/12/15 02:22:55;;;;;;;26.63;11.63;;;;;;;;;;4992995;28;20054;-61
2021/12/15 02:25:22;;;;;;;27.23;12.45;;;;;;;;;;4993191;28;20393;-63
2021/12/15 02:27:50;;;;;;;26.08;11.63;;;;;;;;;;4992658;28;20050;-59
2021/12/15 02:30:28;;;;;;;28.50;12.20;;;;;;;;;;4992726;28;20046;-59
2021/12/15 02:33:12;;;;;;;26.73;11.75;;;;;;;;;;4993118;28;20054;-58
2021/12/15 02:38:31;;;;;;;29.10;13.25;;;;;;;;;;4992843;28;20049;-60
2021/12/15 02:41:06;;;;;;;29.60;13.60;;;;;;;;;;4992879;28;20054;-59
2021/12/15 02:43:33;;;;;;;26.80;13.52;;;;;;;;;;4992684;28;20058;-59
2021/12/15 02:46:00;;;;;;;28.33;12.18;;;;;;;;;;4993061;28;20512;-61
2021/12/15 02:48:27;;;;;;;25.48;11.90;;;;;;;;;;5024909;23;20412;-78
2021/12/15 02:50:56;;;;;;;30.85;12.50;;;;;;;;;;5012646;28;20045;-78
2021/12/15 02:53:24;;;;;;;26.08;12.40;;;;;;;;;;5013353;28;20605;-79
2021/12/15 02:55:51;;;;;;;46.97;22.17;;;;;;;;;;5013543;28;20050;-79
2021/12/15 02:58:20;;;;;;;44.17;19.58;;;;;;;;;;5000166;28;20572;-78
2021/12/15 03:00:56;;;;;;;30.77;13.55;;;;;;;;;;4993755;28;20050;-78
2021/12/15 03:06:19;;;;;;;29.27;13.25;;;;;;;;;;4987903;28;20053;-79
2021/12/15 03:08:54;;;;;;;27.60;11.70;;;;;;;;;;4993367;28;20476;-79
2021/12/15 03:16:51;;;;;;;27.40;12.32;;;;;;;;;;4993082;28;20507;-79
2021/12/15 03:19:18;;;;;;;25.75;13.07;;;;;;;;;;4993047;28;20124;-79
2021/12/15 03:21:47;;;;;;;30.88;13.60;;;;;;;;;;4994651;28;20185;-79
2021/12/15 03:24:19;;;;;;;25.02;11.60;;;;;;;;;;4996954;28;20050;-79
2021/12/15 03:26:52;;;;;;;26.10;12.20;;;;;;;;;;4997031;28;20081;-79
2021/12/15 03:35:03;;;;;;;26.17;12.45;;;;;;;;;;5016869;28;20134;-81
2021/12/15 03:37:35;;;;;;;30.65;13.77;;;;;;;;;;5000403;28;20056;-80
2021/12/15 03:40:07;;;;;;;31.48;13.00;;;;;;;;;;5000514;28;20054;-80
2021/12/15 03:42:40;;;;;;;29.70;13.07;;;;;;;;;;5000093;28;20057;-80
2021/12/15 03:45:10;;;;;;;31.38;12.43;;;;;;;;;;5000536;28;20133;-80
2021/12/15 03:47:40;;;;;;;27.33;12.02;;;;;;;;;;4999773;28;20046;-80
2021/12/15 03:50:09;;;;;;;27.65;13.02;;;;;;;;;;5000131;28;20061;-79
2021/12/15 03:52:38;;;;;;;27.75;13.13;;;;;;;;;;5001986;28;20085;-79
2021/12/15 03:55:07;;;;;;;25.67;12.23;;;;;;;;;;5003887;28;20108;-80
2021/12/15 03:57:33;;;;;;;26.60;12.48;;;;;;;;;;5001844;28;20149;-79
2021/12/15 04:00:00;;;;;;;24.00;11.75;;;;;;;;;;5002861;28;20409;-80
2021/12/15 04:02:28;;;;;;;28.23;13.57;;;;;;;;;;5001335;28;20046;-79
2021/12/15 04:04:55;;;;;;;28.40;14.27;;;;;;;;;;5006400;28;20074;-79
2021/12/15 04:07:23;;;;;;;28.17;12.60;;;;;;;;;;5002453;28;20058;-79
2021/12/15 04:09:52;;;;;;;28.67;13.30;;;;;;;;;;5001467;28;20101;-80
2021/12/15 04:12:20;;;;;;;28.80;13.20;;;;;;;;;;5001686;28;20046;-79
2021/12/15 04:15:06;;;;;;;34.70;13.95;;;;;;;;;;5000727;28;20054;-79
2021/12/15 04:17:34;;;;;;;28.83;13.35;;;;;;;;;;5000295;28;20057;-79
2021/12/15 04:20:05;;;;;;;26.77;12.23;;;;;;;;;;5000467;28;20055;-80
2021/12/15 04:22:32;;;;;;;29.65;13.57;;;;;;;;;;5000906;28;20054;-80
2021/12/15 04:25:05;;;;;;;26.23;11.70;;;;;;;;;;5008754;28;20038;-77
2021/12/15 04:27:32;;;;;;;24.33;11.20;;;;;;;;;;5002025;28;20077;-79
2021/12/15 04:29:59;;;;;;;24.77;12.15;;;;;;;;;;5000520;28;20437;-79
2021/12/15 04:32:29;;;;;;;20.00;9.65;;;;;;;;;;4999147;28;20057;-79
2021/12/15 04:34:57;;;;;;;15.27;8.25;;;;;;;;;;4999204;28;20046;-81
2021/12/15 04:37:24;;;;;;;17.02;7.38;;;;;;;;;;4995682;28;20109;-79
2021/12/15 04:39:51;;;;;;;16.80;7.97;;;;;;;;;;4995530;28;20046;-79
2021/12/15 04:42:20;;;;;;;18.50;9.32;;;;;;;;;;4995434;28;20452;-78
2021/12/15 04:44:48;;;;;;;19.58;8.82;;;;;;;;;;4995352;28;20121;-77
2021/12/15 04:47:15;;;;;;;19.50;9.23;;;;;;;;;;4994826;28;20141;-79
2021/12/15 04:49:44;;;;;;;16.48;8.70;;;;;;;;;;4994838;28;20105;-78
2021/12/15 04:52:12;;;;;;;19.45;9.18;;;;;;;;;;4995225;28;20042;-79
2021/12/15 04:54:40;;;;;;;23.02;10.25;;;;;;;;;;4994989;28;20073;-79
2021/12/15 04:57:08;;;;;;;20.02;10.20;;;;;;;;;;4994863;28;20096;-79
2021/12/15 04:59:36;;;;;;;20.10;9.65;;;;;;;;;;4994827;28;20097;-79
2021/12/15 05:02:05;;;;;;;17.35;8.90;;;;;;;;;;4994657;28;20494;-77
2021/12/15 05:04:32;;;;;;;16.55;9.40;;;;;;;;;;4994867;28;20050;-79
2021/12/15 05:06:59;;;;;;;16.20;9.20;;;;;;;;;;4994654;28;20053;-78
2021/12/15 05:09:26;;;;;;;17.10;8.57;;;;;;;;;;4995249;28;20050;-79
2021/12/15 05:11:54;;;;;;;14.75;8.35;;;;;;;;;;5003840;28;20050;-79
2021/12/15 05:14:22;;;;;;;20.10;9.80;;;;;;;;;;5003504;28;20053;-79
2021/12/15 05:16:50;;;;;;;19.25;10.02;;;;;;;;;;5005352;28;20097;-80
2021/12/15 05:19:18;;;;;;;20.25;10.73;;;;;;;;;;5000786;28;20103;-80
2021/12/15 05:21:45;;;;;;;19.13;10.07;;;;;;;;;;5000493;28;20073;-80
2021/12/15 05:24:22;;;;;;;21.20;10.27;;;;;;;;;;5000399;28;20058;-80
2021/12/15 05:26:50;;;;;;;22.60;10.77;;;;;;;;;;5014572;28;20065;-77
2021/12/15 05:29:17;;;;;;;23.92;11.70;;;;;;;;;;5013678;28;20058;-77
2021/12/15 05:31:44;;;;;;;21.92;11.93;;;;;;;;;;5013591;28;20114;-79
2021/12/15 05:34:12;;;;;;;20.13;10.73;;;;;;;;;;5003364;28;20046;-83
2021/12/15 05:36:39;;;;;;;22.13;11.55;;;;;;;;;;4997716;28;20047;-79
2021/12/15 05:39:07;;;;;;;22.38;11.45;;;;;;;;;;4994427;28;20505;-78
2021/12/15 05:41:34;;;;;;;21.52;11.63;;;;;;;;;;4994190;28;20129;-79
2021/12/15 05:44:01;;;;;;;24.60;13.55;;;;;;;;;;4994221;28;20050;-77
2021/12/15 05:46:27;;;;;;;28.65;13.93;;;;;;;;;;4994642;28;20054;-78
2021/12/15 05:48:54;;;;;;;23.35;12.63;;;;;;;;;;4994285;28;20050;-77
2021/12/15 05:51:22;;;;;;;26.85;13.27;;;;;;;;;;4994043;28;20054;-78
2021/12/15 05:53:49;;;;;;;27.58;13.65;;;;;;;;;;4993874;28;20046;-78
2021/12/15 05:56:18;;;;;;;27.08;14.57;;;;;;;;;;4996036;28;20054;-79
2021/12/15 05:58:45;;;;;;;26.90;14.13;;;;;;;;;;4997490;28;20077;-79
2021/12/15 06:01:11;;;;;;;29.70;15.45;;;;;;;;;;4997623;28;20050;-79
2021/12/15 06:03:39;;;;;;;31.52;16.08;;;;;;;;;;4998182;28;20093;-79
2021/12/15 06:06:06;;;;;;;32.28;17.15;;;;;;;;;;4998200;28;20551;-79
2021/12/15 06:08:34;;;;;;;38.95;18.27;;;;;;;;;;4997583;28;20053;-79
2021/12/15 06:11:01;;;;;;;34.30;17.15;;;;;;;;;;4997962;28;20042;-79
2021/12/15 06:13:29;;;;;;;33.08;17.58;;;;;;;;;;4997503;28;20046;-79
2021/12/15 06:15:57;;;;;;;33.58;17.45;;;;;;;;;;4997614;28;20055;-79
2021/12/15 06:18:25;;;;;;;31.48;15.98;;;;;;;;;;4997298;28;20133;-78
2021/12/15 06:20:54;;;;;;;36.60;16.58;;;;;;;;;;4997798;28;20050;-79
2021/12/15 06:23:22;;;;;;;32.60;15.63;;;;;;;;;;4997762;28;20050;-79
2021/12/15 06:25:54;;;;;;;26.27;13.43;;;;;;;;;;4997171;28;20046;-78
2021/12/15 06:28:22;;;;;;;30.27;14.23;;;;;;;;;;4998911;28;20046;-79
2021/12/15 06:30:49;;;;;;;29.10;15.75;;;;;;;;;;5001777;28;20046;-79
2021/12/15 06:33:16;;;;;;;30.13;15.05;;;;;;;;;;5000689;28;20073;-79
2021/12/15 06:35:51;;;;;;;27.85;14.70;;;;;;;;;;4998899;28;20058;-79
2021/12/15 06:38:18;;;;;;;38.67;17.52;;;;;;;;;;4998154;28;20069;-79
2021/12/15 06:40:45;;;;;;;33.38;16.17;;;;;;;;;;4997977;28;20046;-79
2021/12/15 06:43:13;;;;;;;35.10;15.38;;;;;;;;;;4997199;28;20042;-78
2021/12/15 06:45:55;;;;;;;35.67;17.25;;;;;;;;;;4997721;28;20054;-79
2021/12/15 06:59:16;;;;;;;48.25;25.05;;;;;;;;;;5001007;28;20057;-79
2021/12/15 07:01:43;;;;;;;53.25;29.83;;;;;;;;;;5001002;28;20050;-78
2021/12/15 07:04:10;;;;;;;38.75;19.60;;;;;;;;;;5001430;28;20047;-79
2021/12/15 07:06:37;;;;;;;30.25;14.88;;;;;;;;;;5001128;28;20513;-79
2021/12/15 07:09:04;;;;;;;28.73;14.13;;;;;;;;;;5001331;28;20113;-79
2021/12/15 07:11:31;;;;;;;30.17;15.40;;;;;;;;;;5001543;28;20082;-79
2021/12/15 07:13:58;;;;;;;32.25;16.33;;;;;;;;;;5002571;28;20073;-78
2021/12/15 07:16:28;;;;;;;32.20;15.48;;;;;;;;;;5000548;28;20097;-78
2021/12/15 07:19:06;;;;;;;33.15;15.32;;;;;;;;;;5000157;28;20486;-78
2021/12/15 07:21:36;;;;;;;34.63;15.07;;;;;;;;;;5000915;28;20051;-80
2021/12/15 07:24:06;;;;;;;31.02;14.50;;;;;;;;;;5001247;28;20046;-79
2021/12/15 07:26:33;;;;;;;33.40;15.90;;;;;;;;;;5001071;28;20141;-78
2021/12/15 07:29:00;;;;;;;32.42;15.02;;;;;;;;;;4999691;28;20493;-79
2021/12/15 07:31:28;;;;;;;35.97;15.18;;;;;;;;;;4999750;28;20054;-80
2021/12/15 07:33:55;;;;;;;35.28;15.40;;;;;;;;;;4997529;28;20050;-79
2021/12/15 07:36:21;;;;;;;36.63;16.80;;;;;;;;;;4997336;28;20104;-80
2021/12/15 07:38:48;;;;;;;52.08;24.40;;;;;;;;;;4997713;28;20050;-80
2021/12/15 07:41:25;;;;;;;37.47;16.85;;;;;;;;;;5000880;28;20051;-79
2021/12/15 07:43:52;;;;;;;34.35;13.10;;;;;;;;;;5000912;28;20046;-80
2021/12/15 07:46:20;;;;;;;36.45;15.75;;;;;;;;;;5000777;28;20053;-81
2021/12/15 07:48:48;;;;;;;34.08;13.50;;;;;;;;;;4999825;28;20050;-78
2021/12/15 07:51:15;;;;;;;34.55;14.13;;;;;;;;;;4999811;28;20181;-78
2021/12/15 07:53:43;;;;;;;34.42;14.30;;;;;;;;;;4999677;28;20043;-79
2021/12/15 07:56:10;;;;;;;34.67;14.07;;;;;;;;;;4999670;28;20046;-77
2021/12/15 07:58:37;;;;;;;34.40;13.55;;;;;;;;;;4995693;28;20046;-78
2021/12/15 08:01:05;;;;;;;30.77;12.90;;;;;;;;;;4996786;28;20050;-79
2021/12/15 08:03:34;;;;;;;27.73;12.65;;;;;;;;;;4996883;28;20061;-79
2021/12/15 08:06:03;;;;;;;30.27;13.15;;;;;;;;;;4996676;28;20494;-79
2021/12/15 08:08:30;;;;;;;33.03;12.63;;;;;;;;;;4995822;28;20046;-78
2021/12/15 08:10:58;;;;;;;25.80;11.43;;;;;;;;;;5007135;28;20108;-79
2021/12/15 08:13:26;;;;;;;26.88;11.27;;;;;;;;;;5019166;28;20042;-79
2021/12/15 08:15:53;;;;;;;27.08;11.25;;;;;;;;;;5019612;28;20053;-78
2021/12/15 08:18:20;;;;;;;30.63;11.45;;;;;;;;;;5019154;28;20098;-79
2021/12/15 08:20:47;;;;;;;23.20;10.32;;;;;;;;;;5019336;28;20155;-78
2021/12/15 08:23:16;;;;;;;26.48;11.13;;;;;;;;;;5019168;28;20056;-79
2021/12/15 08:25:42;;;;;;;25.90;11.90;;;;;;;;;;5027820;28;20073;-78
2021/12/15 08:28:12;;;;;;;32.17;12.43;;;;;;;;;;5024207;28;20049;-78
2021/12/15 08:30:40;;;;;;;27.95;10.85;;;;;;;;;;5021174;28;20041;-78
2021/12/15 08:33:12;;;;;;;29.73;12.65;;;;;;;;;;5018500;28;20085;-79
2021/12/15 08:35:43;;;;;;;54.10;24.98;;;;;;;;;;5018775;28;20524;-79
2021/12/15 08:38:12;;;;;;;35.53;17.25;;;;;;;;;;5019662;28;20041;-79
2021/12/15 08:40:41;;;;;;;27.75;12.00;;;;;;;;;;5023627;28;20710;-78
2021/12/15 08:43:09;;;;;;;22.90;9.05;;;;;;;;;;5023052;28;20103;-79
2021/12/15 08:45:39;;;;;;;24.75;9.57;;;;;;;;;;5020624;28;20056;-79
2021/12/15 08:48:10;;;;;;;20.52;8.38;;;;;;;;;;5052059;22;20049;-67
2021/12/15 08:50:38;;;;;;;;;;;;;;;;;;4992717;28;20061;-67
2021/12/15 08:53:09;;;;;;;19.88;7.65;;;;;;;;;;4992586;28;19922;-65
2021/12/15 08:55:36;;;;;;;17.00;7.18;;;;;;;;;;4992392;28;20062;-66
2021/12/15 08:58:06;;;;;;;19.50;7.32;;;;;;;;;;4992351;28;20056;-66
2021/12/15 09:00:34;;;;;;;15.80;6.57;;;;;;;;;;4992511;28;20050;-66
2021/12/15 09:03:01;;;;;;;16.98;7.00;;;;;;;;;;4992313;28;20054;-66
2021/12/15 09:05:28;;;;;;;20.88;7.57;;;;;;;;;;4992077;28;20113;-66
2021/12/15 09:07:58;;;;;;;16.05;7.40;;;;;;;;;;4992081;28;20660;-66
2021/12/15 09:10:28;;;;;;;17.58;7.20;;;;;;;;;;4992018;28;20062;-66
2021/12/15 09:12:56;;;;;;;17.33;7.03;;;;;;;;;;4992864;28;20050;-66
2021/12/15 09:15:25;;;;;;;17.30;7.75;;;;;;;;;;4991977;28;20086;-66
2021/12/15 09:17:52;;;;;;;19.25;8.82;;;;;;;;;;4992172;28;20046;-66
2021/12/15 09:20:22;;;;;;;18.00;7.00;;;;;;;;;;4991168;28;20054;-65
2021/12/15 09:22:49;;;;;;;19.25;7.82;;;;;;;;;;4991967;28;20047;-66
2021/12/15 09:25:17;;;;;;;23.65;9.57;;;;;;;;;;4992297;28;20042;-65
2021/12/15 09:27:45;;;;;;;15.98;6.15;;;;;;;;;;4991909;28;20057;-66
2021/12/15 09:30:15;;;;;;;19.02;7.40;;;;;;;;;;4992120;28;20065;-65
2021/12/15 09:32:43;;;;;;;18.30;7.87;;;;;;;;;;4992126;28;20149;-65
2021/12/15 09:35:12;;;;;;;16.25;6.88;;;;;;;;;;5005035;28;20307;-65
2021/12/15 09:37:39;;;;;;;19.42;7.55;;;;;;;;;;5011452;28;20054;-67
2021/12/15 09:40:09;;;;;;;17.13;7.50;;;;;;;;;;5008121;28;20042;-66
2021/12/15 09:42:39;;;;;;;19.95;8.20;;;;;;;;;;5011308;28;20054;-66
2021/12/15 09:45:21;;;;;;;19.65;8.48;;;;;;;;;;5011221;28;20322;-66
2021/12/15 09:48:04;;;;;;;18.05;7.28;;;;;;;;;;5011633;28;20521;-66
2021/12/15 10:04:23;;;;;;;14.93;6.65;;;;;;;;;;5000583;28;20112;-65
2021/12/15 10:07:15;;;;;;;17.33;6.65;;;;;;;;;;4991424;28;20058;-65
2021/12/15 10:18:29;;;;;;;13.30;6.07;;;;;;;;;;4952855;28;20464;-66
2021/12/15 10:20:58;;;;;;;14.57;6.47;;;;;;;;;;4991507;28;20046;-66
2021/12/15 10:23:34;;;;;;;14.07;5.75;;;;;;;;;;4993185;28;20475;-66
2021/12/15 10:26:01;;;;;;;12.73;6.93;;;;;;;;;;4995731;28;20406;-66
2021/12/15 10:28:31;;;;;;;12.10;5.47;;;;;;;;;;4996151;28;21162;-66
2021/12/15 10:31:00;;;;;;;12.57;6.32;;;;;;;;;;4997203;28;20118;-67
2021/12/15 10:33:29;;;;;;;15.45;6.13;;;;;;;;;;4998226;28;20049;-67
2021/12/15 10:36:01;;;;;;;8.70;4.72;;;;;;;;;;4996167;28;20262;-66
2021/12/15 10:38:30;;;;;;;11.98;5.82;;;;;;;;;;4998624;28;20411;-67
2021/12/15 10:41:05;;;;;;;12.57;6.60;;;;;;;;;;4998355;28;20501;-66
2021/12/15 10:43:36;;;;;;;11.10;5.20;;;;;;;;;;4996478;28;20486;-66
2021/12/15 10:46:07;;;;;;;10.20;5.00;;;;;;;;;;4996818;28;20069;-66
2021/12/15 10:48:44;;;;;;;10.77;5.32;;;;;;;;;;4996192;28;20042;-66
2021/12/15 10:51:28;;;;;;;11.43;4.60;;;;;;;;;;4996281;28;20462;-66
2021/12/15 10:53:57;;;;;;;11.13;5.45;;;;;;;;;;4995486;28;20042;-66
2021/12/15 10:56:27;;;;;;;7.50;3.90;;;;;;;;;;4995234;28;20034;-66
2021/12/15 10:58:57;;;;;;;9.35;4.93;;;;;;;;;;4996376;28;20416;-66
2021/12/15 11:01:43;;;;;;;8.30;4.13;;;;;;;;;;4996001;28;20050;-67
2021/12/15 11:04:27;;;;;;;7.68;3.85;;;;;;;;;;4996596;28;20064;-67
2021/12/15 11:07:19;;;;;;;7.45;3.63;;;;;;;;;;4996501;28;20057;-66
2021/12/15 11:09:48;;;;;;;6.85;3.72;;;;;;;;;;4997346;28;20041;-66
2021/12/15 11:12:20;;;;;;;9.23;4.28;;;;;;;;;;4995888;28;20046;-66
2021/12/15 11:14:49;;;;;;;7.82;4.00;;;;;;;;;;4995916;28;20222;-66
2021/12/15 11:17:19;;;;;;;9.23;4.22;;;;;;;;;;4996037;28;20042;-66
2021/12/15 11:19:55;;;;;;;8.13;4.13;;;;;;;;;;4994563;28;20520;-67
2021/12/15 11:22:43;;;;;;;11.32;4.78;;;;;;;;;;4996055;28;20050;-66
2021/12/15 11:25:17;;;;;;;8.18;4.57;;;;;;;;;;4995858;28;20061;-67
2021/12/15 11:27:50;;;;;;;7.95;4.03;;;;;;;;;;4994861;28;20077;-66
2021/12/15 11:30:23;;;;;;;7.88;4.00;;;;;;;;;;4995660;28;20050;-66
2021/12/15 11:32:53;;;;;;;9.30;4.60;;;;;;;;;;4996014;28;20038;-67
2021/12/15 11:35:23;;;;;;;7.07;3.95;;;;;;;;;;4995822;28;20044;-66
2021/12/15 11:37:57;;;;;;;8.82;4.47;;;;;;;;;;4996127;28;20046;-66
2021/12/15 11:40:32;;;;;;;9.43;4.32;;;;;;;;;;4994620;28;20262;-66
2021/12/15 11:43:00;;;;;;;9.52;4.07;;;;;;;;;;4996999;28;20054;-65
2021/12/15 11:45:28;;;;;;;8.95;4.63;;;;;;;;;;4998168;28;20054;-67
2021/12/15 11:48:16;;;;;;;8.32;4.82;;;;;;;;;;5000085;28;20058;-66
2021/12/15 11:50:45;;;;;;;9.40;4.22;;;;;;;;;;4999988;28;20373;-66
2021/12/15 11:53:31;;;;;;;9.85;4.55;;;;;;;;;;4999743;28;20322;-66
2021/12/15 11:56:12;;;;;;;9.05;4.90;;;;;;;;;;5000840;28;20069;-66
2021/12/15 11:58:39;;;;;;;9.88;4.50;;;;;;;;;;4996618;28;20050;-66
2021/12/15 12:01:08;;;;;;;12.25;4.78;;;;;;;;;;4997253;28;20502;-66
2021/12/15 12:03:35;;;;;;;9.57;4.90;;;;;;;;;;4999371;28;20064;-67
2021/12/15 12:06:03;;;;;;;7.75;4.20;;;;;;;;;;4997083;28;20050;-67
2021/12/15 12:08:31;;;;;;;8.90;4.25;;;;;;;;;;4999466;28;20072;-68
2021/12/15 12:11:05;;;;;;;9.43;4.40;;;;;;;;;;4998239;28;20050;-68
2021/12/15 12:13:38;;;;;;;9.50;5.00;;;;;;;;;;4999397;28;20411;-67
2021/12/15 12:16:08;;;;;;;11.77;5.57;;;;;;;;;;4999023;28;20057;-67
2021/12/15 12:18:36;;;;;;;8.48;4.82;;;;;;;;;;4997786;28;20057;-67
2021/12/15 12:21:07;;;;;;;9.00;4.03;;;;;;;;;;4998654;28;20065;-67
2021/12/15 12:23:36;;;;;;;;;;;;;;;;;;4998123;28;20145;-69
2021/12/15 12:26:06;;;;;;;8.10;3.88;;;;;;;;;;4998046;28;19930;-67
2021/12/15 12:28:37;;;;;;;8.30;3.97;;;;;;;;;;4997996;28;20125;-67
2021/12/15 12:31:07;;;;;;;9.65;4.65;;;;;;;;;;4998702;28;20054;-68
2021/12/15 12:33:35;;;;;;;9.57;4.68;;;;;;;;;;4997103;28;20081;-68
2021/12/15 12:36:06;;;;;;;7.72;4.13;;;;;;;;;;4996574;28;20141;-68
2021/12/15 12:38:37;;;;;;;6.88;3.30;;;;;;;;;;5000022;28;20052;-67
2021/12/15 12:41:11;;;;;;;7.13;3.72;;;;;;;;;;4998384;28;20052;-67
2021/12/15 12:43:40;;;;;;;7.80;3.58;;;;;;;;;;4997245;28;20391;-68
2021/12/15 12:46:15;;;;;;;7.80;3.88;;;;;;;;;;4997362;28;20055;-66
2021/12/15 12:49:13;;;;;;;8.50;4.00;;;;;;;;;;4998040;28;20050;-67
2021/12/15 13:00:04;;;;;;;7.68;3.92;;;;;;;;;;4996322;28;20141;-68
2021/12/15 13:02:42;;;;;;;8.77;4.00;;;;;;;;;;4998891;28;20281;-66
2021/12/15 13:05:33;;;;;;;10.15;4.70;;;;;;;;;;4997665;28;20081;-68
2021/12/15 13:08:01;;;;;;;9.48;4.45;;;;;;;;;;4998391;28;20077;-66
2021/12/15 13:10:56;;;;;;;7.75;4.10;;;;;;;;;;4998465;28;20042;-66
2021/12/15 13:13:27;;;;;;;9.48;4.45;;;;;;;;;;4997112;28;20050;-68
2021/12/15 13:15:57;;;;;;;8.88;4.00;;;;;;;;;;4997888;28;20049;-67
2021/12/15 13:18:25;;;;;;;8.55;4.40;;;;;;;;;;4999094;28;20067;-66
2021/12/15 13:21:00;;;;;;;8.90;4.18;;;;;;;;;;4996642;28;20495;-66
2021/12/15 13:23:43;;;;;;;7.20;4.43;;;;;;;;;;4995406;28;20076;-66
2021/12/15 13:29:21;;;;;;;8.15;4.90;;;;;;;;;;4996938;28;20052;-67
2021/12/15 13:31:57;;;;;;;8.85;4.35;;;;;;;;;;4997820;28;20076;-68
2021/12/15 13:34:43;;;;;;;7.80;4.20;;;;;;;;;;4997070;28;20047;-67
2021/12/15 13:37:11;;;;;;;9.85;4.88;;;;;;;;;;4996855;28;20045;-66
2021/12/15 13:39:44;;;;;;;8.98;4.80;;;;;;;;;;4997400;28;20038;-68
2021/12/15 13:42:15;;;;;;;9.68;5.38;;;;;;;;;;4997654;28;20080;-67
2021/12/15 13:44:45;;;;;;;9.13;5.50;;;;;;;;;;4997834;28;20454;-67
2021/12/15 13:47:18;;;;;;;7.57;4.28;;;;;;;;;;4997733;28;20049;-68
2021/12/15 13:49:46;;;;;;;6.63;4.25;;;;;;;;;;4997055;28;20050;-67
2021/12/15 13:52:35;;;;;;;9.57;4.78;;;;;;;;;;4997501;28;20495;-68
2021/12/15 13:55:25;;;;;;;9.07;4.60;;;;;;;;;;4998042;28;20050;-66
2021/12/15 13:58:16;;;;;;;9.00;4.53;;;;;;;;;;4997024;28;20053;-66
2021/12/15 14:00:50;;;;;;;12.32;4.55;;;;;;;;;;4996309;28;20056;-66
2021/12/15 14:03:23;;;;;;;10.48;5.05;;;;;;;;;;4997694;28;20045;-67
2021/12/15 14:05:54;;;;;;;8.13;4.00;;;;;;;;;;4996894;28;20054;-67
2021/12/15 14:08:27;;;;;;;10.35;4.80;;;;;;;;;;4995608;28;20046;-66
2021/12/15 14:11:21;;;;;;;8.63;4.88;;;;;;;;;;4996833;28;20499;-67
2021/12/15 14:13:57;;;;;;;10.10;5.05;;;;;;;;;;4997313;28;20081;-65
2021/12/15 14:16:49;;;;;;;8.43;4.78;;;;;;;;;;4995922;28;20042;-69
2021/12/15 14:19:24;;;;;;;9.27;4.28;;;;;;;;;;4992839;28;20192;-67
2021/12/15 14:21:56;;;;;;;11.13;4.68;;;;;;;;;;4996622;28;20728;-67
2021/12/15 14:24:23;;;;;;;7.78;4.78;;;;;;;;;;4995955;28;20495;-67
2021/12/15 14:26:52;;;;;;;7.90;4.70;;;;;;;;;;4998922;28;20046;-67
2021/12/15 14:29:24;;;;;;;10.38;5.63;;;;;;;;;;4996455;28;20054;-67
2021/12/15 14:31:52;;;;;;;9.13;5.63;;;;;;;;;;4995843;28;20053;-67
2021/12/15 14:34:22;;;;;;;10.18;5.75;;;;;;;;;;4997543;28;20478;-68
2021/12/15 14:36:51;;;;;;;10.98;5.68;;;;;;;;;;4998676;28;20046;-68
2021/12/15 14:39:22;;;;;;;9.70;5.22;;;;;;;;;;4997342;28;20128;-69
2021/12/15 14:41:52;;;;;;;9.82;5.43;;;;;;;;;;4995184;28;20129;-71
2021/12/15 14:44:22;;;;;;;7.93;4.90;;;;;;;;;;4996241;28;20133;-66
2021/12/15 14:46:53;;;;;;;9.52;5.30;;;;;;;;;;4995158;28;20173;-67
2021/12/15 14:49:25;;;;;;;11.32;5.70;;;;;;;;;;4994470;28;20056;-67
2021/12/15 14:51:55;;;;;;;9.73;5.47;;;;;;;;;;4995226;28;20053;-66
2021/12/15 14:54:24;;;;;;;10.13;5.50;;;;;;;;;;4997150;28;20058;-70
2021/12/15 14:56:54;;;;;;;10.25;5.18;;;;;;;;;;4996044;28;20423;-67
2021/12/15 14:59:27;;;;;;;8.30;4.75;;;;;;;;;;4996377;28;20244;-66
2021/12/15 15:01:57;;;;;;;9.65;4.95;;;;;;;;;;4996728;28;20053;-68
2021/12/15 15:04:27;;;;;;;8.50;4.90;;;;;;;;;;4996782;28;20104;-67
2021/12/15 15:06:57;;;;;;;10.05;5.25;;;;;;;;;;4997118;28;20396;-67
2021/12/15 15:09:27;;;;;;;8.65;5.25;;;;;;;;;;4995047;28;20096;-68
2021/12/15 15:12:02;;;;;;;11.27;5.15;;;;;;;;;;4994671;28;20042;-67
2021/12/15 15:14:42;;;;;;;10.07;5.60;;;;;;;;;;4995457;28;20048;-66
2021/12/15 15:17:23;;;;;;;8.98;5.30;;;;;;;;;;4995765;28;20508;-67
2021/12/15 15:19:53;;;;;;;11.13;5.38;;;;;;;;;;5000529;28;20097;-66
2021/12/15 15:22:23;;;;;;;9.55;5.57;;;;;;;;;;5000118;28;20046;-67
2021/12/15 15:24:51;;;;;;;14.00;6.33;;;;;;;;;;5000444;28;20050;-66
2021/12/15 15:27:20;;;;;;;11.57;5.75;;;;;;;;;;4998254;28;20045;-66
2021/12/15 15:29:51;;;;;;;12.15;6.38;;;;;;;;;;5000046;28;20068;-67
2021/12/15 15:32:22;;;;;;;13.52;6.82;;;;;;;;;;5000867;28;20057;-67
2021/12/15 15:34:51;;;;;;;11.38;6.05;;;;;;;;;;4997580;28;20046;-67
2021/12/15 15:37:28;;;;;;;10.70;5.80;;;;;;;;;;4996707;28;20060;-67
2021/12/15 15:40:14;;;;;;;12.93;7.03;;;;;;;;;;4997837;28;20488;-67
2021/12/15 15:42:42;;;;;;;13.18;7.20;;;;;;;;;;4997806;28;20533;-68
2021/12/15 15:45:36;;;;;;;12.35;7.25;;;;;;;;;;4997838;28;20145;-67
2021/12/15 15:48:06;;;;;;;14.60;7.15;;;;;;;;;;4997754;28;20053;-68
2021/12/15 15:50:35;;;;;;;14.18;7.65;;;;;;;;;;4998975;28;20046;-68
2021/12/15 15:53:06;;;;;;;13.23;7.72;;;;;;;;;;4998982;28;21028;-67
2021/12/15 15:55:33;;;;;;;13.85;7.35;;;;;;;;;;4998700;28;20045;-68
2021/12/15 15:58:06;;;;;;;11.90;6.93;;;;;;;;;;5000367;28;20042;-67
2021/12/15 16:00:37;;;;;;;13.18;6.65;;;;;;;;;;4999008;28;20562;-67
2021/12/15 16:03:07;;;;;;;13.00;6.85;;;;;;;;;;4999568;28;20077;-65
2021/12/15 16:05:34;;;;;;;15.43;7.27;;;;;;;;;;5000376;28;20050;-67
2021/12/15 16:08:02;;;;;;;15.98;7.68;;;;;;;;;;5000544;28;20045;-68
2021/12/15 16:10:31;;;;;;;15.38;8.00;;;;;;;;;;4997936;28;20069;-68
2021/12/15 16:13:01;;;;;;;15.00;7.55;;;;;;;;;;4999750;28;20442;-68
2021/12/15 16:15:44;;;;;;;13.77;7.50;;;;;;;;;;4998856;28;20085;-67